Corpus Christi International Airport
KCRP : now visible

Airfield :











YOU CAN JOIN US ON...

 
LOGIN :

Register | Disclaimer

   EN    FR    IT 

 









Legend :    VFR   Marginal VFR   IFR   Intensive IFR   Very Intensive IFR
Visi :
Ceiling :
>= 8 km
>= 3000ft
5 to 8 km
1000 to 3000 ft
1500m to 5 km
500 to 1000 ft
800 to 1500m
200 to 500 ft
< 800m
< 200 ft
Symbols :   Thunderstorms  Fog  Heavy snow  Heavy precipitations  Wind > 20 kt






- Airport Elevation : 44 ft
- IATA code : CRP


KCRP - Corpus Christi International

CURRENT METAR :
  • 161151Z 16009KT 5SM BR FEW027 OVC230 22/21 A2975 RMK AO2 SLP071 T02170206 10233 20217 53003

EXPIRED METARs :
  • 161051Z 15011KT 9SM FEW025 SCT032 OVC240 22/21 A2974 RMK AO2 SLP069 T02170206
  • 160951Z 16012KT 9SM SCT032 OVC250 23/21 A2974 RMK AO2 SLP070 T02280206

TAF KCRP
Valid from the 16 at 12:00 until the 17 at 12:00 UTC


161139Z 1612/1712 16012KT 6SM BR SCT025 OVC250
TEMPO 1612/1616 BKN030
FM161600 VRB04KT P6SM SCT025 BKN035
FM161900 35014G20KT P6SM SCT025 BKN050
FM162200 36021G29KT P6SM FEW015 SCT050 SCT250



MET'MAP, your aeronautical weather chart ! - Copyright ORBIFLY December 2007 - Disclaimer

ORBIFLY MET'MAP TEAM :

Programming & Development : Alexandra Zaïnal
Concept & original design : Baudouin d'Aumeries
Assistance for programming : Marc-Olivier Méhu
Technical & hardware support : Manuel Goepfert

Contact : metmap@orbifly.com




SOURCES & CREDITS :

   NOAA       Earth
Advisory